createdAt,value
2023-05-22T00:01:02.295Z,56.36
2023-05-22T00:03:30.597Z,56.22
2023-05-22T00:06:00.491Z,56.76
2023-05-22T00:08:29.833Z,56.78
2023-05-22T00:10:58.337Z,56.65
2023-05-22T00:13:26.292Z,57.25
2023-05-22T00:15:56.507Z,57.29
2023-05-22T00:18:25.565Z,57.63
2023-05-22T00:20:53.672Z,57.72
2023-05-22T00:23:22.053Z,57.75
2023-05-22T00:25:50.821Z,58.32
2023-05-22T00:28:18.937Z,58.84
2023-05-22T00:30:46.973Z,58.95
2023-05-22T00:33:16.700Z,59.51
2023-05-22T00:35:44.662Z,60.16
2023-05-22T00:38:29.505Z,61.09
2023-05-22T00:40:57.660Z,61.09
2023-05-22T00:43:25.807Z,61.67
2023-05-22T00:45:54.224Z,62.42
2023-05-22T00:48:23.731Z,62.49
2023-05-22T00:50:52.391Z,62.85
2023-05-22T00:53:21.936Z,62.96
2023-05-22T00:55:50.226Z,63.45
2023-05-22T00:58:19.507Z,63.70
2023-05-22T01:00:47.757Z,64.61
2023-05-22T01:03:16.315Z,64.70
2023-05-22T01:05:45.678Z,65.07
2023-05-22T01:08:13.773Z,65.40
2023-05-22T01:10:42.213Z,65.53
2023-05-22T01:13:20.129Z,66.49
2023-05-22T01:15:53.597Z,66.73
2023-05-22T01:18:29.420Z,67.28
2023-05-22T01:21:05.092Z,67.59
2023-05-22T01:24:13.908Z,68.24
2023-05-22T01:27:17.677Z,68.31
2023-05-22T01:29:49.466Z,67.97
2023-05-22T01:32:22.915Z,69.03
2023-05-22T01:34:54.756Z,69.05
2023-05-22T01:37:23.687Z,69.52
2023-05-22T01:39:53.198Z,70.26
2023-05-22T01:42:21.745Z,70.50
2023-05-22T01:44:49.901Z,70.92
2023-05-22T01:47:19.398Z,71.37
2023-05-22T01:49:48.455Z,72.07
2023-05-22T01:52:26.868Z,72.45
2023-05-22T01:55:03.727Z,72.36
2023-05-22T01:57:41.513Z,72.78
2023-05-22T02:00:11.738Z,72.79
2023-05-22T02:02:45.434Z,73.54
2023-05-22T02:05:15.947Z,73.55
2023-05-22T02:07:45.215Z,73.68
2023-05-22T02:10:14.649Z,73.98
2023-05-22T02:12:43.264Z,74.17
2023-05-22T02:15:11.810Z,74.48
2023-05-22T02:17:41.644Z,75.09
2023-05-22T02:20:14.576Z,75.06
2023-05-22T02:22:44.124Z,74.66
2023-05-22T02:25:14.605Z,74.98
2023-05-22T02:27:43.744Z,74.55
2023-05-22T02:30:12.910Z,74.49
2023-05-22T02:32:42.906Z,74.18
2023-05-22T02:35:11.237Z,73.82
2023-05-22T02:37:39.562Z,73.34
2023-05-22T02:40:08.464Z,73.57
2023-05-22T02:42:36.572Z,73.28
2023-05-22T02:45:05.010Z,73.38
2023-05-22T02:47:32.937Z,73.64
2023-05-22T02:50:02.338Z,73.78
2023-05-22T02:52:30.978Z,73.31
2023-05-22T02:54:58.878Z,73.76
2023-05-22T02:57:27.245Z,73.40
2023-05-22T02:59:55.203Z,73.70
2023-05-22T03:02:23.054Z,73.83
2023-05-22T03:04:51.084Z,74.20
2023-05-22T03:07:21.623Z,74.53
2023-05-22T03:09:49.511Z,74.94
2023-05-22T03:12:17.659Z,75.36
2023-05-22T03:14:45.992Z,75.80
2023-05-22T03:17:13.941Z,76.08
2023-05-22T03:19:41.915Z,76.52
2023-05-22T03:22:09.794Z,77.15
2023-05-22T03:24:39.072Z,77.56
2023-05-22T03:27:07.648Z,77.67
2023-05-22T03:29:36.468Z,77.75
2023-05-22T03:32:04.638Z,78.23
2023-05-22T03:34:32.951Z,78.39
2023-05-22T03:37:01.096Z,78.43
2023-05-22T03:39:29.019Z,78.44
2023-05-22T03:41:58.388Z,78.45
2023-05-22T03:44:26.742Z,78.62
2023-05-22T03:46:54.744Z,78.53
2023-05-22T03:49:22.745Z,78.75
2023-05-22T03:51:50.957Z,78.93
2023-05-22T03:54:18.839Z,78.80
2023-05-22T03:56:46.786Z,78.79
2023-05-22T03:59:16.576Z,78.80
2023-05-22T04:01:46.671Z,78.54
2023-05-22T04:04:14.663Z,78.78
2023-05-22T04:06:44.018Z,78.27
2023-05-22T04:09:12.932Z,78.27
2023-05-22T04:11:42.277Z,78.18
2023-05-22T04:14:10.520Z,78.17
2023-05-22T04:16:39.906Z,78.51
2023-05-22T04:19:09.710Z,78.13
2023-05-22T04:21:38.440Z,78.13
2023-05-22T04:24:08.063Z,77.84
2023-05-22T04:26:36.270Z,77.60
2023-05-22T04:29:04.549Z,77.44
2023-05-22T04:31:32.602Z,76.86
2023-05-22T04:34:01.980Z,76.95
2023-05-22T04:36:31.329Z,76.35
2023-05-22T04:39:00.537Z,76.17
2023-05-22T04:41:28.896Z,76.25
2023-05-22T04:43:56.998Z,76.06
2023-05-22T04:46:25.027Z,75.54
2023-05-22T04:48:53.081Z,75.10
2023-05-22T04:51:23.121Z,74.89
2023-05-22T04:53:52.077Z,74.92
2023-05-22T04:56:31.794Z,74.41
2023-05-22T04:59:05.737Z,73.53
2023-05-22T05:01:35.213Z,73.00
2023-05-22T05:04:03.982Z,72.71
2023-05-22T05:06:34.912Z,72.04
2023-05-22T05:09:02.978Z,71.31
2023-05-22T05:11:31.037Z,71.03
2023-05-22T05:13:58.984Z,70.41
2023-05-22T05:16:27.389Z,69.60
2023-05-22T05:18:55.707Z,68.92
2023-05-22T05:21:24.623Z,68.69
2023-05-22T05:23:53.937Z,68.47
2023-05-22T05:26:24.079Z,68.63
2023-05-22T05:28:52.080Z,68.45
2023-05-22T05:31:20.423Z,68.06
2023-05-22T05:33:49.044Z,68.00
2023-05-22T05:36:17.594Z,68.09
2023-05-22T05:38:45.665Z,67.92
2023-05-22T05:41:15.091Z,67.80
2023-05-22T05:43:44.032Z,67.45
2023-05-22T05:46:12.317Z,67.43
2023-05-22T05:48:40.221Z,67.26
2023-05-22T05:51:08.217Z,66.74
2023-05-22T05:53:37.101Z,66.45
2023-05-22T05:56:06.663Z,66.22
2023-05-22T05:58:36.030Z,65.80
2023-05-22T06:01:04.988Z,65.51
2023-05-22T06:03:33.065Z,65.48
2023-05-22T06:06:03.799Z,65.40
2023-05-22T06:08:32.344Z,65.03
2023-05-22T06:11:03.447Z,64.38
2023-05-22T06:13:31.580Z,64.18
2023-05-22T06:16:02.991Z,64.09
2023-05-22T06:18:32.917Z,63.91
2023-05-22T06:21:01.130Z,63.63
2023-05-22T06:23:29.069Z,63.19
2023-05-22T06:25:57.493Z,62.87
2023-05-22T06:28:25.763Z,62.46
2023-05-22T06:30:53.676Z,61.96
2023-05-22T06:33:23.376Z,61.26
2023-05-22T06:35:51.583Z,60.77
2023-05-22T06:38:19.640Z,60.40
2023-05-22T06:40:47.641Z,59.87
2023-05-22T06:43:15.635Z,59.39
2023-05-22T06:45:43.607Z,58.69
2023-05-22T06:48:12.121Z,57.42
2023-05-22T06:50:41.602Z,54.96
2023-05-22T06:53:09.610Z,53.70
2023-05-22T06:55:37.671Z,52.83
2023-05-22T06:58:05.664Z,52.23
2023-05-22T07:00:33.752Z,51.55
2023-05-22T07:03:02.187Z,50.49
2023-05-22T07:05:30.538Z,49.86
2023-05-22T07:07:59.919Z,49.04
2023-05-22T07:10:28.144Z,48.76
2023-05-22T07:12:56.317Z,48.61
2023-05-22T07:15:24.260Z,47.77
2023-05-22T07:17:52.302Z,47.39
2023-05-22T07:20:20.717Z,47.50
2023-05-22T07:22:48.671Z,47.57
2023-05-22T07:25:18.435Z,47.62
2023-05-22T07:27:46.418Z,48.00
2023-05-22T07:30:14.928Z,47.11
2023-05-22T07:32:44.067Z,46.70
2023-05-22T07:35:12.489Z,45.40
2023-05-22T07:37:41.450Z,43.50
2023-05-22T07:40:11.430Z,42.65
2023-05-22T07:42:42.715Z,41.22
2023-05-22T07:45:11.809Z,40.31
2023-05-22T07:47:39.931Z,39.63
2023-05-22T07:50:09.543Z,39.05
2023-05-22T07:52:37.466Z,38.35
2023-05-22T07:55:07.892Z,37.81
2023-05-22T07:57:36.525Z,37.16
2023-05-22T08:00:13.800Z,36.77
2023-05-22T08:02:42.495Z,36.58
2023-05-22T08:05:11.209Z,35.42
2023-05-22T08:07:39.284Z,35.63
2023-05-22T08:10:14.450Z,34.93
2023-05-22T08:12:42.496Z,34.71
2023-05-22T08:15:13.208Z,33.86
2023-05-22T08:17:41.512Z,34.14
2023-05-22T08:20:11.357Z,33.90
2023-05-22T08:22:40.437Z,34.23
2023-05-22T08:25:09.286Z,34.25
2023-05-22T08:27:37.699Z,33.64
2023-05-22T08:30:06.432Z,33.88
2023-05-22T08:32:35.855Z,33.36
2023-05-22T08:35:03.983Z,33.19
2023-05-22T08:37:31.942Z,33.08
2023-05-22T08:39:59.885Z,32.67
2023-05-22T08:42:28.079Z,33.39
2023-05-22T08:44:57.964Z,32.85
2023-05-22T08:47:26.864Z,32.16
2023-05-22T08:49:59.226Z,32.59
2023-05-22T08:52:34.253Z,32.77
2023-05-22T08:55:05.235Z,32.38
2023-05-22T08:57:33.843Z,31.79
2023-05-22T09:00:01.905Z,31.91
2023-05-22T09:02:30.124Z,31.60
2023-05-22T09:05:02.072Z,31.19
2023-05-22T09:07:30.105Z,30.67
2023-05-22T09:09:58.591Z,30.46
2023-05-22T09:12:27.466Z,30.67
2023-05-22T09:14:56.069Z,30.73
2023-05-22T09:17:24.296Z,30.27
2023-05-22T09:19:52.379Z,29.50
2023-05-22T09:22:23.588Z,29.20
2023-05-22T09:24:52.540Z,29.39
2023-05-22T09:27:25.129Z,29.45
2023-05-22T09:29:58.146Z,29.87
2023-05-22T09:32:26.360Z,29.68
2023-05-22T09:34:54.452Z,28.60
2023-05-22T09:37:24.076Z,28.90
2023-05-22T09:39:54.531Z,29.42
2023-05-22T09:42:25.673Z,29.19
2023-05-22T09:44:53.651Z,29.49
2023-05-22T09:47:21.647Z,30.22
2023-05-22T09:49:49.886Z,30.53
2023-05-22T09:52:19.466Z,29.93
2023-05-22T09:54:55.477Z,28.84
2023-05-22T09:57:26.441Z,28.80
2023-05-22T09:59:58.417Z,27.94
2023-05-22T10:02:28.766Z,28.19
2023-05-22T10:04:57.992Z,27.67
2023-05-22T10:07:34.112Z,27.55
2023-05-22T10:10:06.704Z,27.07
2023-05-22T10:12:38.607Z,27.10
2023-05-22T10:15:09.416Z,27.00
2023-05-22T10:17:39.416Z,26.53
2023-05-22T10:20:10.469Z,26.52
2023-05-22T10:22:39.592Z,25.86
2023-05-22T10:25:11.038Z,25.81
2023-05-22T10:27:40.168Z,26.10
2023-05-22T10:30:20.413Z,26.01
2023-05-22T10:32:52.314Z,25.99
2023-05-22T10:35:26.780Z,26.03
2023-05-22T10:37:57.777Z,25.42
2023-05-22T10:40:30.681Z,25.42
2023-05-22T10:43:00.497Z,25.56
2023-05-22T10:45:29.859Z,25.25
2023-05-22T10:48:05.690Z,25.10
2023-05-22T10:50:34.305Z,25.09
2023-05-22T10:53:28.240Z,25.28
2023-05-22T10:56:02.437Z,25.69
2023-05-22T10:58:32.381Z,25.69
2023-05-22T11:01:13.243Z,25.90
2023-05-22T11:04:03.064Z,26.10
2023-05-22T11:06:36.039Z,26.36
2023-05-22T11:09:27.747Z,25.96
2023-05-22T11:12:21.231Z,25.28
2023-05-22T11:14:51.040Z,24.93
2023-05-22T11:17:20.604Z,25.45
2023-05-22T11:19:59.196Z,25.53
2023-05-22T11:22:32.699Z,25.10
2023-05-22T11:25:01.371Z,25.46
2023-05-22T11:27:31.609Z,25.46
2023-05-22T11:30:01.156Z,25.98
2023-05-22T11:32:29.451Z,25.53
2023-05-22T11:34:58.602Z,25.17
2023-05-22T11:37:26.678Z,25.89
2023-05-22T11:39:58.491Z,26.23
2023-05-22T11:42:26.704Z,26.59
2023-05-22T11:45:01.374Z,25.46
2023-05-22T11:47:29.963Z,25.50
2023-05-22T11:49:59.910Z,25.47
2023-05-22T11:52:33.148Z,25.13
2023-05-22T11:55:01.446Z,25.86
2023-05-22T11:57:29.655Z,25.44
2023-05-22T11:59:59.343Z,24.89
2023-05-22T12:02:27.458Z,24.68
2023-05-22T12:04:56.084Z,24.48
2023-05-22T12:07:24.981Z,24.36
2023-05-22T12:09:53.231Z,25.08
2023-05-22T12:12:22.664Z,24.63
2023-05-22T12:14:51.208Z,24.92
2023-05-22T12:17:20.512Z,24.70
2023-05-22T12:19:48.798Z,24.66
2023-05-22T12:22:18.582Z,24.23
2023-05-22T12:24:47.149Z,24.67
2023-05-22T12:27:15.730Z,24.18
2023-05-22T12:29:44.765Z,23.86
2023-05-22T12:32:14.167Z,23.64
2023-05-22T12:34:50.446Z,22.67
2023-05-22T12:37:22.856Z,23.63
2023-05-22T12:39:58.190Z,24.12
2023-05-22T12:42:26.720Z,24.67
2023-05-22T12:44:55.410Z,24.25
2023-05-22T12:47:24.522Z,24.03
2023-05-22T12:49:54.263Z,23.87
2023-05-22T12:52:22.719Z,23.89
2023-05-22T12:54:51.632Z,23.32
2023-05-22T12:57:19.836Z,23.42
2023-05-22T12:59:47.938Z,23.18
2023-05-22T13:02:16.605Z,23.01
2023-05-22T13:04:44.580Z,22.41
2023-05-22T13:07:16.513Z,22.55
2023-05-22T13:09:44.507Z,22.27
2023-05-22T13:12:12.666Z,22.28
2023-05-22T13:14:41.322Z,22.41
2023-05-22T13:17:09.657Z,21.82
2023-05-22T13:19:38.270Z,21.74
2023-05-22T13:22:07.510Z,22.38
2023-05-22T13:24:36.824Z,21.69
2023-05-22T13:27:05.241Z,22.17
2023-05-22T13:29:34.303Z,21.91
2023-05-22T13:32:02.781Z,22.40
2023-05-22T13:34:31.145Z,22.15
2023-05-22T13:36:59.263Z,22.09
2023-05-22T13:39:27.252Z,22.42
2023-05-22T13:41:59.135Z,22.57
2023-05-22T13:44:27.667Z,22.54
2023-05-22T13:46:55.852Z,22.84
2023-05-22T13:49:24.365Z,23.19
2023-05-22T13:51:52.715Z,22.97
2023-05-22T13:54:21.326Z,22.45
2023-05-22T13:56:49.623Z,22.16
2023-05-22T13:59:20.700Z,22.47
2023-05-22T14:01:50.781Z,22.28
2023-05-22T14:04:18.969Z,22.75
2023-05-22T14:06:47.958Z,22.31
2023-05-22T14:09:15.941Z,22.47
2023-05-22T14:11:46.096Z,22.02
2023-05-22T14:14:14.632Z,22.03
2023-05-22T14:16:44.413Z,22.52
2023-05-22T14:19:12.423Z,22.21
2023-05-22T14:21:41.599Z,22.19
2023-05-22T14:24:09.863Z,22.64
2023-05-22T14:26:38.515Z,22.58
2023-05-22T14:29:06.851Z,23.39
2023-05-22T14:31:52.026Z,23.41
2023-05-22T14:34:20.269Z,23.81
2023-05-22T14:36:48.717Z,23.40
2023-05-22T14:39:16.759Z,23.82
2023-05-22T14:41:44.744Z,23.81
2023-05-22T14:44:13.007Z,23.73
2023-05-22T14:46:41.063Z,23.86
2023-05-22T14:49:10.442Z,24.45
2023-05-22T14:51:38.668Z,24.54
2023-05-22T14:54:08.084Z,24.39
2023-05-22T14:56:36.115Z,24.69
2023-05-22T14:59:04.115Z,24.67
2023-05-22T15:01:32.054Z,24.61
2023-05-22T15:04:00.306Z,24.66
2023-05-22T15:06:29.903Z,24.10
2023-05-22T15:08:57.980Z,24.18
2023-05-22T15:11:26.625Z,24.31
2023-05-22T15:13:55.363Z,24.94
2023-05-22T15:16:24.148Z,25.46
2023-05-22T15:18:52.270Z,25.78
2023-05-22T15:21:20.636Z,25.22
2023-05-22T15:23:49.925Z,25.69
2023-05-22T15:26:18.068Z,25.67
2023-05-22T15:28:46.121Z,25.12
2023-05-22T15:31:14.493Z,24.89
2023-05-22T15:33:44.820Z,25.30
2023-05-22T15:36:13.045Z,25.67
2023-05-22T15:38:45.258Z,26.03
2023-05-22T15:41:14.930Z,26.84
2023-05-22T15:43:42.960Z,27.58
2023-05-22T15:46:16.847Z,27.96
2023-05-22T15:48:45.345Z,28.34
2023-05-22T15:51:14.518Z,29.10
2023-05-22T15:53:42.480Z,29.40
2023-05-22T15:56:10.709Z,30.09
2023-05-22T15:58:40.302Z,30.56
2023-05-22T16:01:09.150Z,30.88
2023-05-22T16:03:37.296Z,30.78
2023-05-22T16:06:07.191Z,30.79
2023-05-22T16:08:35.450Z,31.05
2023-05-22T16:11:03.448Z,31.29
2023-05-22T16:13:31.437Z,31.75
2023-05-22T16:16:01.776Z,31.97
2023-05-22T16:18:29.776Z,32.23
2023-05-22T16:20:57.676Z,32.08
2023-05-22T16:23:25.649Z,32.04
2023-05-22T16:25:53.573Z,32.12
2023-05-22T16:28:21.505Z,32.26
2023-05-22T16:30:51.268Z,32.28
2023-05-22T16:33:20.562Z,32.32
2023-05-22T16:35:48.765Z,32.64
2023-05-22T16:38:16.885Z,32.41
2023-05-22T16:40:44.788Z,32.79
2023-05-22T16:43:13.893Z,32.98
2023-05-22T16:45:46.602Z,32.76
2023-05-22T16:48:14.652Z,32.99
2023-05-22T16:50:44.217Z,33.23
2023-05-22T16:53:12.229Z,33.44
2023-05-22T16:55:40.398Z,33.78
2023-05-22T16:58:09.127Z,34.32
2023-05-22T17:00:37.906Z,34.59
2023-05-22T17:03:06.845Z,34.65
2023-05-22T17:05:35.325Z,34.86
2023-05-22T17:08:04.674Z,34.87
2023-05-22T17:10:32.572Z,34.85
2023-05-22T17:13:02.812Z,35.22
2023-05-22T17:15:30.834Z,35.24
2023-05-22T17:18:00.255Z,35.39
2023-05-22T17:20:29.762Z,35.47
2023-05-22T17:22:57.834Z,35.29
2023-05-22T17:25:27.125Z,35.44
2023-05-22T17:27:55.084Z,35.32
2023-05-22T17:30:23.115Z,35.35
2023-05-22T17:32:53.417Z,35.26
2023-05-22T17:35:21.608Z,35.26
2023-05-22T17:37:49.716Z,35.33
2023-05-22T17:40:18.267Z,35.42
2023-05-22T17:42:48.373Z,35.52
2023-05-22T17:45:16.456Z,35.60
2023-05-22T17:47:44.401Z,35.80
2023-05-22T17:50:12.952Z,36.14
2023-05-22T17:52:41.274Z,35.98
2023-05-22T17:55:10.413Z,35.88
2023-05-22T17:57:38.631Z,36.10
2023-05-22T18:00:10.617Z,36.26
2023-05-22T18:02:38.745Z,36.25
2023-05-22T18:05:07.542Z,36.50
2023-05-22T18:07:35.585Z,36.74
2023-05-22T18:10:05.023Z,36.85
2023-05-22T18:12:33.106Z,36.77
2023-05-22T18:15:01.111Z,36.86
2023-05-22T18:17:30.392Z,37.12
2023-05-22T18:19:58.460Z,37.09
2023-05-22T18:22:26.791Z,37.04
2023-05-22T18:24:54.763Z,37.29
2023-05-22T18:27:23.039Z,37.22
2023-05-22T18:29:51.893Z,37.00
2023-05-22T18:32:19.832Z,37.01
2023-05-22T18:34:49.664Z,37.11
2023-05-22T18:37:19.080Z,37.35
2023-05-22T18:39:47.237Z,37.08
2023-05-22T18:42:15.753Z,37.21
2023-05-22T18:44:43.945Z,37.13
2023-05-22T18:47:11.974Z,37.20
2023-05-22T18:49:40.078Z,37.06
2023-05-22T18:52:09.476Z,37.04
2023-05-22T18:54:37.473Z,36.97
2023-05-22T18:57:05.709Z,37.19
2023-05-22T18:59:33.652Z,37.34
2023-05-22T19:02:01.740Z,37.52
2023-05-22T19:04:29.844Z,37.73
2023-05-22T19:06:59.143Z,37.88
2023-05-22T19:09:28.584Z,38.02
2023-05-22T19:11:58.022Z,38.03
2023-05-22T19:14:25.913Z,38.09
2023-05-22T19:16:54.270Z,38.36
2023-05-22T19:19:22.360Z,38.56
2023-05-22T19:21:50.321Z,38.74
2023-05-22T19:24:18.488Z,38.88
2023-05-22T19:26:50.482Z,38.90
2023-05-22T19:29:18.421Z,39.15
2023-05-22T19:31:47.328Z,39.27
2023-05-22T19:34:15.399Z,39.57
2023-05-22T19:36:43.805Z,39.55
2023-05-22T19:39:11.768Z,39.79
2023-05-22T19:41:40.048Z,40.03
2023-05-22T19:44:09.335Z,40.29
2023-05-22T19:46:37.266Z,40.17
2023-05-22T19:49:05.395Z,40.49
2023-05-22T19:51:33.352Z,40.79
2023-05-22T19:54:01.398Z,40.99
2023-05-22T19:56:30.288Z,41.05
2023-05-22T19:58:58.329Z,41.33
2023-05-22T20:01:27.638Z,41.63
2023-05-22T20:03:56.532Z,41.57
2023-05-22T20:06:24.505Z,41.80
2023-05-22T20:08:52.398Z,41.98
2023-05-22T20:11:20.414Z,41.98
2023-05-22T20:13:48.374Z,42.13
2023-05-22T20:16:16.330Z,42.54
2023-05-22T20:18:46.365Z,42.77
2023-05-22T20:21:14.306Z,42.83
2023-05-22T20:23:42.256Z,42.80
2023-05-22T20:26:10.330Z,43.11
2023-05-22T20:28:38.252Z,43.22
2023-05-22T20:31:06.241Z,43.40
2023-05-22T20:33:34.211Z,43.56
2023-05-22T20:36:04.120Z,43.66
2023-05-22T20:38:34.600Z,43.90
2023-05-22T20:41:07.702Z,44.06
2023-05-22T20:43:37.141Z,44.07
2023-05-22T20:46:06.043Z,44.39
2023-05-22T20:48:36.080Z,44.48
2023-05-22T20:51:05.991Z,44.57
2023-05-22T20:53:34.118Z,44.87
2023-05-22T20:56:02.136Z,44.94
2023-05-22T20:58:30.143Z,45.07
2023-05-22T21:00:58.279Z,45.29
2023-05-22T21:03:26.334Z,45.43
2023-05-22T21:05:54.957Z,45.80
2023-05-22T21:08:24.429Z,45.94
2023-05-22T21:10:52.409Z,45.95
2023-05-22T21:13:20.671Z,46.15
2023-05-22T21:15:48.735Z,46.24
2023-05-22T21:18:16.730Z,45.90
2023-05-22T21:20:44.891Z,45.98
2023-05-22T21:23:13.062Z,46.08
2023-05-22T21:25:42.480Z,46.34
2023-05-22T21:28:10.536Z,46.14
2023-05-22T21:30:38.732Z,46.03
2023-05-22T21:33:07.190Z,45.84
2023-05-22T21:35:35.569Z,45.88
2023-05-22T21:38:03.683Z,45.79
2023-05-22T21:40:31.729Z,45.86
2023-05-22T21:43:01.111Z,46.02
2023-05-22T21:45:29.331Z,46.20
2023-05-22T21:47:57.485Z,46.21
2023-05-22T21:50:25.464Z,46.30
2023-05-22T21:52:53.456Z,46.36
2023-05-22T21:55:22.154Z,46.46
2023-05-22T21:57:50.165Z,46.60
2023-05-22T22:00:20.239Z,46.72
2023-05-22T22:02:48.345Z,46.52
2023-05-22T22:05:18.703Z,46.72
2023-05-22T22:07:46.774Z,46.74
2023-05-22T22:10:14.765Z,46.94
2023-05-22T22:12:42.906Z,47.03
2023-05-22T22:15:11.465Z,46.99
2023-05-22T22:17:40.922Z,47.22
2023-05-22T22:20:10.160Z,47.28
2023-05-22T22:22:38.085Z,47.19
2023-05-22T22:25:06.922Z,47.27
2023-05-22T22:27:34.838Z,47.56
2023-05-22T22:30:02.856Z,47.44
2023-05-22T22:32:30.929Z,47.55
2023-05-22T22:35:00.621Z,47.53
2023-05-22T22:37:28.500Z,47.41
2023-05-22T22:39:56.518Z,47.72
2023-05-22T22:42:24.920Z,47.54
2023-05-22T22:44:53.023Z,47.79
2023-05-22T22:47:22.080Z,48.04
2023-05-22T22:49:50.104Z,48.10
2023-05-22T22:52:19.508Z,48.27
2023-05-22T22:54:47.655Z,48.13
2023-05-22T22:57:15.753Z,48.53
2023-05-22T22:59:43.682Z,48.35
2023-05-22T23:02:11.619Z,48.31
2023-05-22T23:04:39.722Z,48.16
2023-05-22T23:07:10.217Z,48.42
2023-05-22T23:09:40.273Z,48.45
2023-05-22T23:12:09.800Z,48.40
2023-05-22T23:14:37.951Z,48.55
2023-05-22T23:17:06.510Z,48.50
2023-05-22T23:19:34.479Z,48.62
2023-05-22T23:22:02.456Z,48.78
2023-05-22T23:24:30.706Z,49.09
2023-05-22T23:26:59.968Z,49.05
2023-05-22T23:29:27.902Z,49.04
2023-05-22T23:31:55.997Z,49.03
2023-05-22T23:34:23.912Z,49.24
2023-05-22T23:36:51.899Z,49.39
2023-05-22T23:39:19.961Z,49.45
2023-05-22T23:41:47.898Z,49.84
2023-05-22T23:44:17.175Z,50.07
2023-05-22T23:46:45.403Z,49.79
2023-05-22T23:49:13.378Z,49.97
2023-05-22T23:51:41.333Z,50.09
2023-05-22T23:54:09.505Z,50.18
2023-05-22T23:56:37.417Z,50.21
2023-05-22T23:59:05.528Z,50.63
